Temp: 8.6°C   Baro: 1005.7mb
  Wind: 4.9mph   Dir: W (272°)
  Rain: 0.6mm (0.0mm/hr)
  Sun: 0W/m2  Humidity: 93%

Historic data

Bath Spa Weather Station Historical Data
Daily Summary for October 31, 2022 Units:  Both    English   Metric
Daily Weekly Monthly Yearly Custom
  High: Low: Average:
Temperature: 61.5 °F /  16.4 °C 52.4 °F /  11.3 °C 56.7 °F /  13.7 °C
Dew Point: 55.2 °F /  12.9 °C 49.6 °F /  9.8 °C 53 °F /  11.7 °C
Humidity: 94% 71% 88%
Wind Speed: 10.8mph /  17.4km/h - 4.5mph /  7.2km/h
Wind Gust: 25mph /  40.2km/h - -
Wind- - SE
Pressure: 29.99 in /  1015.5 hPa 29.41 in /  995.8 hPa -
Precipitation: 0.30 in /  7.62 mm    
Historical Graphs
 
 
Tabular Data for October 31, 2022
Time Temperature Dew Point Pressure Wind Wind Speed Wind Gust Humidity Rainfall Rate (Hourly) solar
00:09 55.2 °F /  12.9 °C 51.8 °F /  11 °C 29.99in /  1015.5hPa SSE 0.4mph /  0.6km/h 3mph /  4.8km/h 88% 0.00in /  0mm 0 W/m2
00:14 55.2 °F /  12.9 °C 51.9 °F /  11.1 °C 29.99in /  1015.5hPa SSE 2mph /  3.2km/h 4mph /  6.4km/h 88.8% 0.00in /  0mm 0 W/m2
00:19 55.1 °F /  12.8 °C 51.9 °F /  11.1 °C 29.98in /  1015.1hPa SE 2.1mph /  3.4km/h 5mph /  8km/h 89% 0.00in /  0mm 0 W/m2
00:24 55.2 °F /  12.9 °C 52 °F /  11.1 °C 29.98in /  1015.1hPa SE 1.7mph /  2.7km/h 4mph /  6.4km/h 89% 0.00in /  0mm 0 W/m2
00:29 55.5 °F /  13.1 °C 52.2 °F /  11.2 °C 29.98in /  1015.1hPa ESE 2.4mph /  3.9km/h 5mph /  8km/h 89% 0.00in /  0mm 0 W/m2
00:34 55.4 °F /  13 °C 52.2 °F /  11.2 °C 29.98in /  1015.1hPa SE 2.1mph /  3.4km/h 5mph /  8km/h 89% 0.00in /  0mm 0 W/m2
00:39 55.2 °F /  12.9 °C 52 °F /  11.1 °C 29.98in /  1015.1hPa SE 2.3mph /  3.7km/h 5mph /  8km/h 89% 0.00in /  0mm 0 W/m2
00:44 55.2 °F /  12.9 °C 52 °F /  11.1 °C 29.98in /  1015.1hPa ESE 2.8mph /  4.5km/h 7mph /  11.3km/h 89% 0.00in /  0mm 0 W/m2
00:49 55.2 °F /  12.9 °C 52 °F /  11.1 °C 29.98in /  1015.1hPa SE 1.6mph /  2.6km/h 4mph /  6.4km/h 89% 0.00in /  0mm 0 W/m2
00:54 55.1 °F /  12.8 °C 51.9 °F /  11.1 °C 29.98in /  1015.1hPa SE 1.5mph /  2.4km/h 4mph /  6.4km/h 89% 0.00in /  0mm 0 W/m2
00:59 55 °F /  12.8 °C 51.8 °F /  11 °C 29.98in /  1015.1hPa SE 2.1mph /  3.4km/h 4mph /  6.4km/h 89% 0.00in /  0mm 0 W/m2
01:04 55 °F /  12.8 °C 51.8 °F /  11 °C 29.98in /  1015.1hPa SE 1.6mph /  2.6km/h 4mph /  6.4km/h 89% 0.00in /  0mm 0 W/m2
01:09 54.9 °F /  12.7 °C 51.6 °F /  10.9 °C 29.98in /  1015.1hPa ESE 2.1mph /  3.4km/h 6mph /  9.7km/h 89% 0.00in /  0mm 0 W/m2
01:14 54.7 °F /  12.6 °C 51.4 °F /  10.8 °C 29.98in /  1015.1hPa ESE 1.6mph /  2.6km/h 4mph /  6.4km/h 89% 0.00in /  0mm 0 W/m2
01:19 54.7 °F /  12.6 °C 51.6 °F /  10.9 °C 29.98in /  1015.1hPa SE 3.1mph /  5km/h 6mph /  9.7km/h 89.6% 0.00in /  0mm 0 W/m2
01:24 54.9 °F /  12.7 °C 52 °F /  11.1 °C 29.98in /  1015.1hPa SSE 4.5mph /  7.2km/h 7mph /  11.3km/h 90% 0.00in /  0mm 0 W/m2
01:29 55.2 °F /  12.9 °C 52.3 °F /  11.3 °C 29.98in /  1015.1hPa SE 2.5mph /  4km/h 5mph /  8km/h 90% 0.00in /  0mm 0 W/m2
01:34 55.2 °F /  12.9 °C 52.3 °F /  11.3 °C 29.98in /  1015.1hPa SE 2.1mph /  3.4km/h 5mph /  8km/h 90% 0.00in /  0mm 0 W/m2
01:39 55.2 °F /  12.9 °C 52.3 °F /  11.3 °C 29.98in /  1015.1hPa SE 2.7mph /  4.3km/h 5mph /  8km/h 90% 0.00in /  0mm 0 W/m2
01:44 55.2 °F /  12.9 °C 52.3 °F /  11.3 °C 29.98in /  1015.1hPa SSE 2.9mph /  4.7km/h 6mph /  9.7km/h 90% 0.00in /  0mm 0 W/m2
01:49 55.2 °F /  12.9 °C 52.3 °F /  11.3 °C 29.98in /  1015.1hPa ESE 2.4mph /  3.9km/h 5mph /  8km/h 90% 0.00in /  0mm 0 W/m2
01:54 55 °F /  12.8 °C 52.2 °F /  11.2 °C 29.98in /  1015.1hPa ESE 2.1mph /  3.4km/h 7mph /  11.3km/h 90% 0.00in /  0mm 0 W/m2
01:59 55 °F /  12.8 °C 52.2 °F /  11.2 °C 29.98in /  1015.1hPa SE 2.7mph /  4.3km/h 9mph /  14.5km/h 90% 0.00in /  0mm 0 W/m2
02:04 55.2 °F /  12.9 °C 52.3 °F /  11.3 °C 29.98in /  1015.1hPa SSE 3.4mph /  5.5km/h 7mph /  11.3km/h 90% 0.00in /  0mm 0 W/m2
02:09 55.2 °F /  12.9 °C 52.3 °F /  11.3 °C 29.98in /  1015.1hPa SE 1.6mph /  2.6km/h 6mph /  9.7km/h 90% 0.00in /  0mm 0 W/m2
02:14 55.2 °F /  12.9 °C 52.3 °F /  11.3 °C 29.98in /  1015.1hPa SE 3.2mph /  5.1km/h 6mph /  9.7km/h 90% 0.00in /  0mm 0 W/m2
02:19 55.2 °F /  12.9 °C 52.3 °F /  11.3 °C 29.98in /  1015.1hPa SE 1.7mph /  2.7km/h 6mph /  9.7km/h 90% 0.00in /  0mm 0 W/m2
02:24 55.2 °F /  12.9 °C 52.3 °F /  11.3 °C 29.98in /  1015.1hPa SE 3mph /  4.8km/h 6mph /  9.7km/h 90% 0.00in /  0mm 0 W/m2
02:29 55.3 °F /  12.9 °C 52.4 °F /  11.3 °C 29.98in /  1015.1hPa SSE 2.9mph /  4.7km/h 6mph /  9.7km/h 90% 0.00in /  0mm 0 W/m2
02:34 55.6 °F /  13.1 °C 52.7 °F /  11.5 °C 29.98in /  1015.1hPa SE 2.4mph /  3.9km/h 6mph /  9.7km/h 90% 0.00in /  0mm 0 W/m2
02:39 55.6 °F /  13.1 °C 52.7 °F /  11.5 °C 29.98in /  1015.1hPa SSE 2.1mph /  3.4km/h 6mph /  9.7km/h 90% 0.00in /  0mm 0 W/m2
02:44 55.6 °F /  13.1 °C 52.7 °F /  11.5 °C 29.98in /  1015.1hPa SE 3.6mph /  5.8km/h 7mph /  11.3km/h 90% 0.00in /  0mm 0 W/m2
02:49 55.6 °F /  13.1 °C 52.7 °F /  11.5 °C 29.97in /  1014.8hPa SE 2.8mph /  4.5km/h 7mph /  11.3km/h 90% 0.00in /  0mm 0 W/m2
02:54 55.6 °F /  13.1 °C 52.7 °F /  11.5 °C 29.97in /  1014.8hPa SE 2mph /  3.2km/h 4mph /  6.4km/h 90% 0.00in /  0mm 0 W/m2
02:59 55.6 °F /  13.1 °C 52.7 °F /  11.5 °C 29.97in /  1014.8hPa SE 2.4mph /  3.9km/h 5mph /  8km/h 90% 0.00in /  0mm 0 W/m2
03:04 55.7 °F /  13.2 °C 52.8 °F /  11.6 °C 29.97in /  1014.8hPa SE 2.8mph /  4.5km/h 6mph /  9.7km/h 90% 0.00in /  0mm 0 W/m2
03:09 55.7 °F /  13.2 °C 52.8 °F /  11.6 °C 29.97in /  1014.8hPa SE 2.1mph /  3.4km/h 5mph /  8km/h 90% 0.00in /  0mm 0 W/m2
03:14 55.6 °F /  13.1 °C 52.7 °F /  11.5 °C 29.97in /  1014.8hPa SE 3.3mph /  5.3km/h 7mph /  11.3km/h 90% 0.00in /  0mm 0 W/m2
03:19 55.6 °F /  13.1 °C 52.7 °F /  11.5 °C 29.96in /  1014.4hPa SE 2.5mph /  4km/h 6mph /  9.7km/h 90% 0.00in /  0mm 0 W/m2
03:24 55.6 °F /  13.1 °C 52.7 °F /  11.5 °C 29.96in /  1014.4hPa SSE 2mph /  3.2km/h 6mph /  9.7km/h 90% 0.00in /  0mm 0 W/m2
03:29 55.6 °F /  13.1 °C 52.7 °F /  11.5 °C 29.96in /  1014.4hPa SSE 2.3mph /  3.7km/h 7mph /  11.3km/h 90% 0.00in /  0mm 0 W/m2
03:34 55.7 °F /  13.2 °C 52.8 °F /  11.6 °C 29.96in /  1014.4hPa SE 2mph /  3.2km/h 7mph /  11.3km/h 90% 0.01in /  0.25mm 0 W/m2
03:39 55.8 °F /  13.2 °C 53.1 °F /  11.7 °C 29.96in /  1014.4hPa SSE 3.3mph /  5.3km/h 5mph /  8km/h 90.6% 0.01in /  0.25mm 0 W/m2
03:44 55.8 °F /  13.2 °C 53.2 °F /  11.8 °C 29.96in /  1014.4hPa SE 2.9mph /  4.7km/h 6mph /  9.7km/h 91% 0.01in /  0.25mm 0 W/m2
03:49 55.7 °F /  13.2 °C 53.2 °F /  11.8 °C 29.96in /  1014.4hPa SSE 2.6mph /  4.2km/h 4mph /  6.4km/h 91% 0.01in /  0.25mm 0 W/m2
03:54 55.6 °F /  13.1 °C 53.1 °F /  11.7 °C 29.96in /  1014.4hPa SE 3mph /  4.8km/h 5mph /  8km/h 91% 0.01in /  0.25mm 0 W/m2
03:59 55.6 °F /  13.1 °C 53.1 °F /  11.7 °C 29.96in /  1014.4hPa SE 3.3mph /  5.3km/h 5mph /  8km/h 91% 0.01in /  0.25mm 0 W/m2
04:04 55.5 °F /  13.1 °C 53 °F /  11.7 °C 29.96in /  1014.4hPa SE 1.5mph /  2.4km/h 5mph /  8km/h 91% 0.01in /  0.25mm 0 W/m2
04:09 55.4 °F /  13 °C 52.9 °F /  11.6 °C 29.96in /  1014.4hPa SE 2.5mph /  4km/h 6mph /  9.7km/h 91% 0.01in /  0.25mm 0 W/m2
04:14 55.4 °F /  13 °C 52.9 °F /  11.6 °C 29.96in /  1014.4hPa SE 3.2mph /  5.1km/h 6mph /  9.7km/h 91% 0.01in /  0.25mm 0 W/m2
04:19 55.4 °F /  13 °C 52.9 °F /  11.6 °C 29.95in /  1014.1hPa SE 1.5mph /  2.4km/h 5mph /  8km/h 91% 0.01in /  0.25mm 0 W/m2
04:24 55.5 °F /  13.1 °C 53 °F /  11.7 °C 29.96in /  1014.4hPa SSE 2.8mph /  4.5km/h 8mph /  12.9km/h 91% 0.01in /  0.25mm 0 W/m2
04:29 55.6 °F /  13.1 °C 53.1 °F /  11.7 °C 29.96in /  1014.4hPa SE 2.4mph /  3.9km/h 8mph /  12.9km/h 91% 0.01in /  0.25mm 0 W/m2
04:34 55.7 °F /  13.2 °C 53.1 °F /  11.7 °C 29.96in /  1014.4hPa SSE 2mph /  3.2km/h 4mph /  6.4km/h 91% 0.01in /  0.25mm 0 W/m2
04:39 55.7 °F /  13.2 °C 53.2 °F /  11.8 °C 29.96in /  1014.4hPa SSE 1.3mph /  2.1km/h 4mph /  6.4km/h 91% 0.00in /  0mm 0 W/m2
04:44 55.6 °F /  13.1 °C 53.1 °F /  11.7 °C 29.96in /  1014.4hPa ESE 2.2mph /  3.5km/h 5mph /  8km/h 91% 0.00in /  0mm 0 W/m2
04:49 55.6 °F /  13.1 °C 53.1 °F /  11.7 °C 29.96in /  1014.4hPa ESE 1.3mph /  2.1km/h 5mph /  8km/h 91% 0.00in /  0mm 0 W/m2
04:54 55.6 °F /  13.1 °C 53.1 °F /  11.7 °C 29.96in /  1014.4hPa SE 1.7mph /  2.7km/h 4mph /  6.4km/h 91% 0.00in /  0mm 0 W/m2
04:59 55.6 °F /  13.1 °C 53.1 °F /  11.7 °C 29.96in /  1014.4hPa SSE 2.6mph /  4.2km/h 6mph /  9.7km/h 91% 0.00in /  0mm 0 W/m2
05:04 55.6 °F /  13.1 °C 53.1 °F /  11.7 °C 29.96in /  1014.4hPa SE 3.8mph /  6.1km/h 6mph /  9.7km/h 91% 0.00in /  0mm 0 W/m2
05:09 55.6 °F /  13.1 °C 53.1 °F /  11.7 °C 29.95in /  1014.1hPa SSE 3.2mph /  5.1km/h 6mph /  9.7km/h 91% 0.00in /  0mm 0 W/m2
05:14 55.6 °F /  13.1 °C 53.1 °F /  11.7 °C 29.95in /  1014.1hPa SSE 2.5mph /  4km/h 6mph /  9.7km/h 91% 0.00in /  0mm 0 W/m2
05:19 55.8 °F /  13.2 °C 53.2 °F /  11.8 °C 29.95in /  1014.1hPa SE 3.2mph /  5.1km/h 6mph /  9.7km/h 91% 0.00in /  0mm 0 W/m2
05:24 55.8 °F /  13.2 °C 53.2 °F /  11.8 °C 29.95in /  1014.1hPa SE 2.9mph /  4.7km/h 5mph /  8km/h 91% 0.00in /  0mm 0 W/m2
05:29 55.8 °F /  13.2 °C 53.2 °F /  11.8 °C 29.95in /  1014.1hPa SSE 2.7mph /  4.3km/h 6mph /  9.7km/h 91% 0.00in /  0mm 0 W/m2
05:34 55.8 °F /  13.2 °C 53.2 °F /  11.8 °C 29.95in /  1014.1hPa SSE 2.8mph /  4.5km/h 6mph /  9.7km/h 91% 0.00in /  0mm 0 W/m2
05:39 55.8 °F /  13.2 °C 53.2 °F /  11.8 °C 29.95in /  1014.1hPa SSE 3.5mph /  5.6km/h 5mph /  8km/h 91% 0.00in /  0mm 0 W/m2
05:44 55.7 °F /  13.2 °C 53.2 °F /  11.8 °C 29.94in /  1013.8hPa SSE 2.5mph /  4km/h 8mph /  12.9km/h 91% 0.00in /  0mm 0 W/m2
05:49 55.5 °F /  13.1 °C 53 °F /  11.7 °C 29.94in /  1013.8hPa SE 2.4mph /  3.9km/h 6mph /  9.7km/h 91% 0.00in /  0mm 0 W/m2
05:54 55.2 °F /  12.9 °C 52.7 °F /  11.5 °C 29.94in /  1013.8hPa SSE 3.3mph /  5.3km/h 6mph /  9.7km/h 91% 0.00in /  0mm 0 W/m2
05:59 55.2 °F /  12.9 °C 52.7 °F /  11.5 °C 29.94in /  1013.8hPa SE 4.8mph /  7.7km/h 8mph /  12.9km/h 91% 0.00in /  0mm 0 W/m2
06:04 55.4 °F /  13 °C 52.9 °F /  11.6 °C 29.93in /  1013.4hPa SSE 5mph /  8km/h 8mph /  12.9km/h 91% 0.00in /  0mm 0 W/m2
06:09 55.6 °F /  13.1 °C 53.1 °F /  11.7 °C 29.93in /  1013.4hPa SSE 3.3mph /  5.3km/h 9mph /  14.5km/h 91% 0.00in /  0mm 0 W/m2
06:14 55.6 °F /  13.1 °C 53.1 °F /  11.7 °C 29.93in /  1013.4hPa SSE 4.9mph /  7.9km/h 9mph /  14.5km/h 91% 0.00in /  0mm 0 W/m2
06:19 55.6 °F /  13.1 °C 53.1 °F /  11.7 °C 29.93in /  1013.4hPa SSE 3.3mph /  5.3km/h 9mph /  14.5km/h 91% 0.00in /  0mm 0 W/m2
06:24 55.6 °F /  13.1 °C 53.1 °F /  11.7 °C 29.93in /  1013.4hPa SSE 2.9mph /  4.7km/h 9mph /  14.5km/h 91% 0.00in /  0mm 0 W/m2
06:29 55.6 °F /  13.1 °C 53.1 °F /  11.7 °C 29.93in /  1013.4hPa SSE 3.9mph /  6.3km/h 10mph /  16.1km/h 91% 0.00in /  0mm 0 W/m2
06:34 55.6 °F /  13.1 °C 53.1 °F /  11.7 °C 29.93in /  1013.4hPa SSE 3.7mph /  6km/h 8mph /  12.9km/h 91% 0.00in /  0mm 0 W/m2
06:39 55.6 °F /  13.1 °C 53.1 °F /  11.7 °C 29.93in /  1013.4hPa SSE 4.9mph /  7.9km/h 9mph /  14.5km/h 91% 0.00in /  0mm 0 W/m2
06:44 55.7 °F /  13.2 °C 53.1 °F /  11.7 °C 29.93in /  1013.4hPa SE 3.6mph /  5.8km/h 9mph /  14.5km/h 91% 0.00in /  0mm 0 W/m2
06:49 55.8 °F /  13.2 °C 53.2 °F /  11.8 °C 29.93in /  1013.4hPa SE 4.7mph /  7.6km/h 8mph /  12.9km/h 91% 0.00in /  0mm 0 W/m2
06:54 55.8 °F /  13.2 °C 53.1 °F /  11.7 °C 29.93in /  1013.4hPa SE 4.5mph /  7.2km/h 9mph /  14.5km/h 90.8% 0.00in /  0mm 0 W/m2
06:59 55.8 °F /  13.2 °C 52.9 °F /  11.6 °C 29.93in /  1013.4hPa SSE 3.8mph /  6.1km/h 8mph /  12.9km/h 90% 0.00in /  0mm 0 W/m2
07:04 55.8 °F /  13.2 °C 52.9 °F /  11.6 °C 29.93in /  1013.4hPa SSE 7mph /  11.3km/h 10mph /  16.1km/h 90% 0.00in /  0mm 5 W/m2
07:09 55.9 °F /  13.3 °C 53.1 °F /  11.7 °C 29.93in /  1013.4hPa SSE 5.6mph /  9km/h 11mph /  17.7km/h 90% 0.00in /  0mm 7 W/m2
07:14 55.9 °F /  13.3 °C 53.1 °F /  11.7 °C 29.93in /  1013.4hPa SSE 4.7mph /  7.6km/h 10mph /  16.1km/h 90% 0.00in /  0mm 9 W/m2
07:19 55.8 °F /  13.2 °C 53 °F /  11.7 °C 29.93in /  1013.4hPa SSE 3.9mph /  6.3km/h 9mph /  14.5km/h 90% 0.00in /  0mm 12 W/m2
07:24 55.9 °F /  13.3 °C 53.1 °F /  11.7 °C 29.93in /  1013.4hPa SSE 6.1mph /  9.8km/h 11mph /  17.7km/h 90% 0.00in /  0mm 14 W/m2
07:29 55.8 °F /  13.2 °C 53 °F /  11.7 °C 29.93in /  1013.4hPa SE 4.5mph /  7.2km/h 9mph /  14.5km/h 90% 0.00in /  0mm 16 W/m2
07:34 55.9 °F /  13.3 °C 53.1 °F /  11.7 °C 29.93in /  1013.4hPa South 5.5mph /  8.9km/h 9mph /  14.5km/h 90% 0.00in /  0mm 16 W/m2
07:39 55.8 °F /  13.2 °C 52.9 °F /  11.6 °C 29.93in /  1013.4hPa SSE 4.2mph /  6.8km/h 9mph /  14.5km/h 90% 0.00in /  0mm 21 W/m2
07:44 55.9 °F /  13.3 °C 53 °F /  11.7 °C 29.93in /  1013.4hPa SSE 4.6mph /  7.4km/h 9mph /  14.5km/h 90% 0.00in /  0mm 26 W/m2
07:49 55.9 °F /  13.3 °C 53.1 °F /  11.7 °C 29.93in /  1013.4hPa SSE 5.2mph /  8.4km/h 9mph /  14.5km/h 90% 0.00in /  0mm 32 W/m2
07:54 55.9 °F /  13.3 °C 53.1 °F /  11.7 °C 29.93in /  1013.4hPa SSE 3.7mph /  6km/h 9mph /  14.5km/h 90% 0.00in /  0mm 40 W/m2
07:59 55.9 °F /  13.3 °C 53 °F /  11.7 °C 29.93in /  1013.4hPa SE 4.4mph /  7.1km/h 7mph /  11.3km/h 89.8% 0.00in /  0mm 46 W/m2
08:04 56 °F /  13.3 °C 52.9 °F /  11.6 °C 29.93in /  1013.4hPa SSE 4.6mph /  7.4km/h 9mph /  14.5km/h 89.4% 0.00in /  0mm 53 W/m2
08:09 56.1 °F /  13.4 °C 52.9 °F /  11.6 °C 29.93in /  1013.4hPa SSE 4.8mph /  7.7km/h 8mph /  12.9km/h 89% 0.00in /  0mm 56 W/m2
08:14 56.4 °F /  13.6 °C 53.1 °F /  11.7 °C 29.93in /  1013.4hPa SSE 4.4mph /  7.1km/h 9mph /  14.5km/h 89% 0.00in /  0mm 56 W/m2
08:19 56.5 °F /  13.6 °C 53.2 °F /  11.8 °C 29.93in /  1013.4hPa SE 5.8mph /  9.3km/h 9mph /  14.5km/h 89% 0.00in /  0mm 60 W/m2
08:24 56.5 °F /  13.6 °C 53.2 °F /  11.8 °C 29.93in /  1013.4hPa SSE 4.8mph /  7.7km/h 10mph /  16.1km/h 89% 0.00in /  0mm 72 W/m2
08:29 56.6 °F /  13.7 °C 53.3 °F /  11.8 °C 29.93in /  1013.4hPa SSE 5.6mph /  9km/h 10mph /  16.1km/h 89% 0.00in /  0mm 74 W/m2
08:34 56.7 °F /  13.7 °C 53.3 °F /  11.8 °C 29.93in /  1013.4hPa SSE 6.3mph /  10.1km/h 14mph /  22.5km/h 88.8% 0.00in /  0mm 76 W/m2
08:39 56.7 °F /  13.7 °C 53.2 °F /  11.8 °C 29.93in /  1013.4hPa SSE 4mph /  6.4km/h 14mph /  22.5km/h 88.2% 0.00in /  0mm 77 W/m2
08:44 56.7 °F /  13.7 °C 53.1 °F /  11.7 °C 29.93in /  1013.4hPa SSE 5.5mph /  8.9km/h 10mph /  16.1km/h 88% 0.00in /  0mm 91 W/m2
08:49 56.7 °F /  13.7 °C 53.1 °F /  11.7 °C 29.92in /  1013.1hPa SE 7mph /  11.3km/h 11mph /  17.7km/h 88% 0.00in /  0mm 91 W/m2
08:54 56.8 °F /  13.8 °C 53.2 °F /  11.8 °C 29.92in /  1013.1hPa SE 4.3mph /  6.9km/h 10mph /  16.1km/h 88% 0.00in /  0mm 93 W/m2
08:59 56.8 °F /  13.8 °C 53.2 °F /  11.8 °C 29.92in /  1013.1hPa SSE 3.9mph /  6.3km/h 8mph /  12.9km/h 88% 0.00in /  0mm 79 W/m2
09:04 56.8 °F /  13.8 °C 53.2 °F /  11.8 °C 29.92in /  1013.1hPa SSE 4mph /  6.4km/h 10mph /  16.1km/h 88% 0.00in /  0mm 81 W/m2
09:09 56.9 °F /  13.8 °C 53.3 °F /  11.8 °C 29.91in /  1012.8hPa SE 5.4mph /  8.7km/h 10mph /  16.1km/h 88% 0.00in /  0mm 111 W/m2
09:14 57 °F /  13.9 °C 53.4 °F /  11.9 °C 29.91in /  1012.8hPa SE 5.9mph /  9.5km/h 10mph /  16.1km/h 88% 0.00in /  0mm 109 W/m2
09:19 57 °F /  13.9 °C 53.4 °F /  11.9 °C 29.91in /  1012.8hPa SE 5mph /  8km/h 10mph /  16.1km/h 88% 0.00in /  0mm 120 W/m2
09:24 57.2 °F /  14 °C 53.6 °F /  12 °C 29.91in /  1012.8hPa SE 4.6mph /  7.4km/h 10mph /  16.1km/h 88% 0.00in /  0mm 123 W/m2
09:29 57.4 °F /  14.1 °C 53.7 °F /  12.1 °C 29.90in /  1012.4hPa SE 5.5mph /  8.9km/h 10mph /  16.1km/h 87.6% 0.00in /  0mm 113 W/m2
09:34 57.4 °F /  14.1 °C 53.6 °F /  12 °C 29.90in /  1012.4hPa SE 5.2mph /  8.4km/h 9mph /  14.5km/h 87% 0.00in /  0mm 102 W/m2
09:39 57.4 °F /  14.1 °C 53.6 °F /  12 °C 29.90in /  1012.4hPa SE 5.4mph /  8.7km/h 9mph /  14.5km/h 87% 0.00in /  0mm 102 W/m2
09:44 57.4 °F /  14.1 °C 53.6 °F /  12 °C 29.90in /  1012.4hPa SE 2.9mph /  4.7km/h 7mph /  11.3km/h 87% 0.00in /  0mm 107 W/m2
09:49 57.4 °F /  14.1 °C 53.6 °F /  12 °C 29.90in /  1012.4hPa ESE 4.6mph /  7.4km/h 10mph /  16.1km/h 87% 0.00in /  0mm 109 W/m2
09:54 57.5 °F /  14.2 °C 53.7 °F /  12.1 °C 29.90in /  1012.4hPa SE 3.5mph /  5.6km/h 8mph /  12.9km/h 87% 0.00in /  0mm 111 W/m2
09:59 57.6 °F /  14.2 °C 53.8 °F /  12.1 °C 29.89in /  1012.1hPa SE 3.7mph /  6km/h 7mph /  11.3km/h 87% 0.00in /  0mm 142 W/m2
10:04 57.7 °F /  14.3 °C 54 °F /  12.2 °C 29.89in /  1012.1hPa SSE 4.5mph /  7.2km/h 10mph /  16.1km/h 87% 0.00in /  0mm 169 W/m2
10:09 57.9 °F /  14.4 °C 54.1 °F /  12.3 °C 29.89in /  1012.1hPa ESE 5.5mph /  8.9km/h 13mph /  20.9km/h 87% 0.00in /  0mm 165 W/m2
10:14 58.1 °F /  14.5 °C 54.1 °F /  12.3 °C 29.89in /  1012.1hPa SE 5.6mph /  9km/h 13mph /  20.9km/h 86.4% 0.00in /  0mm 160 W/m2
10:19 58.3 °F /  14.6 °C 54 °F /  12.2 °C 29.89in /  1012.1hPa ESE 4.9mph /  7.9km/h 12mph /  19.3km/h 85.6% 0.00in /  0mm 156 W/m2
10:24 58.3 °F /  14.6 °C 53.6 °F /  12 °C 29.88in /  1011.7hPa SSE 6.4mph /  10.3km/h 12mph /  19.3km/h 84.6% 0.00in /  0mm 160 W/m2
10:29 58.3 °F /  14.6 °C 53.4 °F /  11.9 °C 29.88in /  1011.7hPa SSE 6.6mph /  10.6km/h 16mph /  25.7km/h 84% 0.00in /  0mm 151 W/m2
10:34 58.5 °F /  14.7 °C 53.6 °F /  12 °C 29.88in /  1011.7hPa SE 5.1mph /  8.2km/h 10mph /  16.1km/h 84% 0.00in /  0mm 158 W/m2
10:39 58.5 °F /  14.7 °C 53.6 °F /  12 °C 29.88in /  1011.7hPa SE 3.9mph /  6.3km/h 9mph /  14.5km/h 84% 0.00in /  0mm 160 W/m2
10:44 58.6 °F /  14.8 °C 53.8 °F /  12.1 °C 29.88in /  1011.7hPa SE 3.7mph /  6km/h 10mph /  16.1km/h 84% 0.00in /  0mm 179 W/m2
10:49 58.6 °F /  14.8 °C 53.5 °F /  11.9 °C 29.88in /  1011.7hPa SE 6.7mph /  10.8km/h 13mph /  20.9km/h 83.2% 0.00in /  0mm 250 W/m2
10:54 58.8 °F /  14.9 °C 53.6 °F /  12 °C 29.88in /  1011.7hPa SE 6.8mph /  10.9km/h 12mph /  19.3km/h 83% 0.00in /  0mm 220 W/m2
10:59 58.9 °F /  14.9 °C 53.7 °F /  12.1 °C 29.87in /  1011.4hPa SE 3.7mph /  6km/h 12mph /  19.3km/h 83% 0.00in /  0mm 193 W/m2
11:04 59.2 °F /  15.1 °C 53.8 °F /  12.1 °C 29.87in /  1011.4hPa SE 8.2mph /  13.2km/h 13mph /  20.9km/h 82.6% 0.00in /  0mm 306 W/m2
11:09 59.4 °F /  15.2 °C 53.8 °F /  12.1 °C 29.87in /  1011.4hPa SE 6.3mph /  10.1km/h 12mph /  19.3km/h 81.6% 0.00in /  0mm 318 W/m2
11:14 59.7 °F /  15.4 °C 53.9 °F /  12.2 °C 29.87in /  1011.4hPa SE 5.3mph /  8.5km/h 13mph /  20.9km/h 80.8% 0.00in /  0mm 373 W/m2
11:19 60.1 °F /  15.6 °C 54.1 °F /  12.3 °C 29.87in /  1011.4hPa SE 5.2mph /  8.4km/h 13mph /  20.9km/h 80.2% 0.00in /  0mm 397 W/m2
11:24 60.1 °F /  15.6 °C 53.9 °F /  12.2 °C 29.87in /  1011.4hPa SSE 5.7mph /  9.2km/h 12mph /  19.3km/h 79.8% 0.00in /  0mm 392 W/m2
11:29 60.5 °F /  15.8 °C 54.1 °F /  12.3 °C 29.86in /  1011.1hPa SE 6mph /  9.7km/h 11mph /  17.7km/h 79.4% 0.00in /  0mm 427 W/m2
11:34 60.6 °F /  15.9 °C 54.1 °F /  12.3 °C 29.86in /  1011.1hPa SE 7.4mph /  11.9km/h 12mph /  19.3km/h 79% 0.00in /  0mm 367 W/m2
11:39 60.3 °F /  15.7 °C 53.4 °F /  11.9 °C 29.86in /  1011.1hPa SE 6.8mph /  10.9km/h 14mph /  22.5km/h 78% 0.00in /  0mm 174 W/m2
11:44 59.9 °F /  15.5 °C 53.1 °F /  11.7 °C 29.85in /  1010.7hPa ESE 5.8mph /  9.3km/h 14mph /  22.5km/h 78% 0.00in /  0mm 171 W/m2
11:49 59.8 °F /  15.4 °C 53 °F /  11.7 °C 29.85in /  1010.7hPa SSE 6mph /  9.7km/h 13mph /  20.9km/h 78.3% 0.00in /  0mm 163 W/m2
11:54 59.7 °F /  15.4 °C 53.2 °F /  11.8 °C 29.85in /  1010.7hPa SE 6.4mph /  10.3km/h 14mph /  22.5km/h 79% 0.00in /  0mm 193 W/m2
11:59 59.7 °F /  15.4 °C 53.2 °F /  11.8 °C 29.84in /  1010.4hPa ESE 6.7mph /  10.8km/h 11mph /  17.7km/h 79% 0.00in /  0mm 186 W/m2
12:04 59.7 °F /  15.4 °C 53.2 °F /  11.8 °C 29.84in /  1010.4hPa SE 5.8mph /  9.3km/h 14mph /  22.5km/h 79% 0.00in /  0mm 181 W/m2
12:09 59.8 °F /  15.4 °C 53.3 °F /  11.8 °C 29.83in /  1010hPa SE 5.8mph /  9.3km/h 13mph /  20.9km/h 79% 0.00in /  0mm 209 W/m2
12:14 60 °F /  15.6 °C 53.4 °F /  11.9 °C 29.83in /  1010hPa SE 4.5mph /  7.2km/h 11mph /  17.7km/h 78.6% 0.00in /  0mm 227 W/m2
12:19 60.1 °F /  15.6 °C 53.1 °F /  11.7 °C 29.83in /  1010hPa SE 8.8mph /  14.2km/h 19mph /  30.6km/h 77.6% 0.00in /  0mm 301 W/m2
12:24 60.3 °F /  15.7 °C 53 °F /  11.7 °C 29.83in /  1010hPa SE 7.2mph /  11.6km/h 13mph /  20.9km/h 76.6% 0.00in /  0mm 385 W/m2
12:29 60.9 °F /  16.1 °C 53 °F /  11.7 °C 29.82in /  1009.7hPa SSE 10.8mph /  17.4km/h 17mph /  27.4km/h 75% 0.00in /  0mm 559 W/m2
12:34 61 °F /  16.1 °C 52.4 °F /  11.3 °C 29.82in /  1009.7hPa SE 6.6mph /  10.6km/h 17mph /  27.4km/h 73.2% 0.00in /  0mm 387 W/m2
12:39 61.1 °F /  16.2 °C 52.5 °F /  11.4 °C 29.82in /  1009.7hPa SE 9.9mph /  15.9km/h 22mph /  35.4km/h 73% 0.00in /  0mm 313 W/m2
12:44 61.4 °F /  16.3 °C 52.5 °F /  11.4 °C 29.81in /  1009.4hPa SSE 6.4mph /  10.3km/h 22mph /  35.4km/h 72.6% 0.00in /  0mm 512 W/m2
12:49 61.5 °F /  16.4 °C 52.3 °F /  11.3 °C 29.81in /  1009.4hPa SE 8.8mph /  14.2km/h 15mph /  24.1km/h 72% 0.00in /  0mm 339 W/m2
12:54 61.4 °F /  16.3 °C 52.2 °F /  11.2 °C 29.80in /  1009hPa SE 7mph /  11.3km/h 14mph /  22.5km/h 72% 0.00in /  0mm 239 W/m2
12:59 61.3 °F /  16.3 °C 52.1 °F /  11.2 °C 29.80in /  1009hPa SE 7.4mph /  11.9km/h 12mph /  19.3km/h 72% 0.00in /  0mm 90 W/m2
13:04 61.2 °F /  16.2 °C 52 °F /  11.1 °C 29.80in /  1009hPa ESE 8.4mph /  13.5km/h 17mph /  27.4km/h 72% 0.00in /  0mm 176 W/m2
13:09 61.3 °F /  16.3 °C 52.1 °F /  11.2 °C 29.79in /  1008.7hPa SSE 8.1mph /  13km/h 17mph /  27.4km/h 72% 0.00in /  0mm 146 W/m2
13:14 61.2 °F /  16.2 °C 52 °F /  11.1 °C 29.79in /  1008.7hPa SE 7.2mph /  11.6km/h 12mph /  19.3km/h 72% 0.00in /  0mm 109 W/m2
13:19 61.1 °F /  16.2 °C 52 °F /  11.1 °C 29.79in /  1008.7hPa SE 7.1mph /  11.4km/h 13mph /  20.9km/h 72% 0.00in /  0mm 81 W/m2
13:24 61.1 °F /  16.2 °C 52.3 °F /  11.3 °C 29.79in /  1008.7hPa SE 5.8mph /  9.3km/h 13mph /  20.9km/h 72.6% 0.00in /  0mm 105 W/m2
13:29 61.2 °F /  16.2 °C 52.5 °F /  11.4 °C 29.78in /  1008.4hPa SSE 3.7mph /  6km/h 10mph /  16.1km/h 73% 0.00in /  0mm 134 W/m2
13:34 61.2 °F /  16.2 °C 52.5 °F /  11.4 °C 29.78in /  1008.4hPa SE 3.5mph /  5.6km/h 10mph /  16.1km/h 73% 0.00in /  0mm 267 W/m2
13:39 61.5 °F /  16.4 °C 52.7 °F /  11.5 °C 29.78in /  1008.4hPa SE 4.5mph /  7.2km/h 11mph /  17.7km/h 73% 0.00in /  0mm 211 W/m2
13:44 61.5 °F /  16.4 °C 52.3 °F /  11.3 °C 29.77in /  1008hPa SE 3.9mph /  6.3km/h 10mph /  16.1km/h 72% 0.00in /  0mm 171 W/m2
13:49 61.5 °F /  16.4 °C 52.3 °F /  11.3 °C 29.77in /  1008hPa SE 5.7mph /  9.2km/h 10mph /  16.1km/h 72% 0.00in /  0mm 134 W/m2
13:54 61.4 °F /  16.3 °C 51.9 °F /  11.1 °C 29.76in /  1007.7hPa SE 5.2mph /  8.4km/h 15mph /  24.1km/h 71% 0.00in /  0mm 116 W/m2
13:59 61.3 °F /  16.3 °C 51.8 °F /  11 °C 29.76in /  1007.7hPa SE 7.8mph /  12.6km/h 15mph /  24.1km/h 71% 0.00in /  0mm 98 W/m2
14:04 61.2 °F /  16.2 °C 51.7 °F /  10.9 °C 29.76in /  1007.7hPa SE 6.8mph /  10.9km/h 12mph /  19.3km/h 71% 0.00in /  0mm 81 W/m2
14:09 61.2 °F /  16.2 °C 52 °F /  11.1 °C 29.76in /  1007.7hPa SE 5.6mph /  9km/h 12mph /  19.3km/h 71.8% 0.00in /  0mm 63 W/m2
14:14 61.2 °F /  16.2 °C 52 °F /  11.1 °C 29.76in /  1007.7hPa SE 10.5mph /  16.9km/h 15mph /  24.1km/h 72% 0.00in /  0mm 65 W/m2
14:19 61.1 °F /  16.2 °C 52 °F /  11.1 °C 29.75in /  1007.3hPa ESE 6.6mph /  10.6km/h 14mph /  22.5km/h 72% 0.00in /  0mm 44 W/m2
14:24 61 °F /  16.1 °C 52 °F /  11.1 °C 29.75in /  1007.3hPa SE 6.2mph /  10km/h 14mph /  22.5km/h 72% 0.00in /  0mm 44 W/m2
14:29 60.7 °F /  15.9 °C 52.1 °F /  11.2 °C 29.75in /  1007.3hPa SE 5.2mph /  8.4km/h 11mph /  17.7km/h 73% 0.00in /  0mm 65 W/m2
14:34 60.6 °F /  15.9 °C 52.3 °F /  11.3 °C 29.74in /  1007hPa SE 7.2mph /  11.6km/h 12mph /  19.3km/h 74% 0.00in /  0mm 70 W/m2
14:39 60.4 °F /  15.8 °C 52.4 °F /  11.3 °C 29.74in /  1007hPa SE 5.6mph /  9km/h 12mph /  19.3km/h 75% 0.00in /  0mm 54 W/m2
14:44 60.3 °F /  15.7 °C 52.3 °F /  11.3 °C 29.74in /  1007hPa SE 6.2mph /  10km/h 11mph /  17.7km/h 75% 0.00in /  0mm 56 W/m2
14:49 60.2 °F /  15.7 °C 52.6 °F /  11.4 °C 29.74in /  1007hPa SE 5.7mph /  9.2km/h 15mph /  24.1km/h 76% 0.00in /  0mm 33 W/m2
14:54 60.1 °F /  15.6 °C 52.6 °F /  11.4 °C 29.73in /  1006.7hPa SE 4.9mph /  7.9km/h 12mph /  19.3km/h 76.2% 0.00in /  0mm 35 W/m2
14:59 60.1 °F /  15.6 °C 52.9 °F /  11.6 °C 29.72in /  1006.3hPa SE 4.2mph /  6.8km/h 9mph /  14.5km/h 77% 0.00in /  0mm 51 W/m2
15:04 59.9 °F /  15.5 °C 53.1 °F /  11.7 °C 29.72in /  1006.3hPa ESE 5.1mph /  8.2km/h 9mph /  14.5km/h 78% 0.00in /  0mm 49 W/m2
15:09 59.3 °F /  15.2 °C 52.9 °F /  11.6 °C 29.72in /  1006.3hPa ESE 6.4mph /  10.3km/h 13mph /  20.9km/h 79.2% 0.00in /  0mm 23 W/m2
15:14 58.5 °F /  14.7 °C 52.5 °F /  11.4 °C 29.72in /  1006.3hPa SE 4.6mph /  7.4km/h 10mph /  16.1km/h 80.4% 0.00in /  0mm 11 W/m2
15:19 58.3 °F /  14.6 °C 52.8 °F /  11.6 °C 29.71in /  1006hPa ESE 4.7mph /  7.6km/h 9mph /  14.5km/h 82% 0.00in /  0mm 7 W/m2
15:24 57.9 °F /  14.4 °C 52.8 °F /  11.6 °C 29.71in /  1006hPa East 4.8mph /  7.7km/h 10mph /  16.1km/h 83.2% 0.00in /  0mm 16 W/m2
15:29 57.8 °F /  14.3 °C 53.1 °F /  11.7 °C 29.70in /  1005.6hPa East 4.8mph /  7.7km/h 15mph /  24.1km/h 84.4% 0.00in /  0mm 21 W/m2
15:34 57.6 °F /  14.2 °C 53.2 °F /  11.8 °C 29.70in /  1005.6hPa East 5.4mph /  8.7km/h 15mph /  24.1km/h 85.2% 0.00in /  0mm 26 W/m2
15:39 57.3 °F /  14.1 °C 53.2 °F /  11.8 °C 29.69in /  1005.3hPa ESE 4.8mph /  7.7km/h 11mph /  17.7km/h 86% 0.00in /  0mm 32 W/m2
15:44 57 °F /  13.9 °C 53.1 °F /  11.7 °C 29.69in /  1005.3hPa ESE 4mph /  6.4km/h 12mph /  19.3km/h 86.6% 0.00in /  0mm 32 W/m2
15:49 56.8 °F /  13.8 °C 53.1 °F /  11.7 °C 29.69in /  1005.3hPa East 4.8mph /  7.7km/h 14mph /  22.5km/h 87.4% 0.00in /  0mm 28 W/m2
15:54 56.8 °F /  13.8 °C 53.2 °F /  11.8 °C 29.68in /  1005hPa ESE 4.7mph /  7.6km/h 10mph /  16.1km/h 88% 0.00in /  0mm 23 W/m2
15:59 56.7 °F /  13.7 °C 53.1 °F /  11.7 °C 29.68in /  1005hPa ESE 6mph /  9.7km/h 11mph /  17.7km/h 88% 0.00in /  0mm 7 W/m2
16:04 56.7 °F /  13.7 °C 53.2 °F /  11.8 °C 29.67in /  1004.6hPa ESE 3.6mph /  5.8km/h 11mph /  17.7km/h 88.4% 0.00in /  0mm 9 W/m2
16:09 56.5 °F /  13.6 °C 53.2 °F /  11.8 °C 29.67in /  1004.6hPa East 5.8mph /  9.3km/h 13mph /  20.9km/h 89% 0.00in /  0mm 7 W/m2
16:14 56.3 °F /  13.5 °C 53.1 °F /  11.7 °C 29.67in /  1004.6hPa East 3.3mph /  5.3km/h 12mph /  19.3km/h 89% 0.00in /  0mm 0 W/m2
16:19 56.1 °F /  13.4 °C 52.9 °F /  11.6 °C 29.66in /  1004.3hPa ENE 6mph /  9.7km/h 15mph /  24.1km/h 89% 0.00in /  0mm 5 W/m2
16:24 56.1 °F /  13.4 °C 53.2 °F /  11.8 °C 29.66in /  1004.3hPa ENE 6.4mph /  10.3km/h 13mph /  20.9km/h 90% 0.00in /  0mm 7 W/m2
16:29 55.9 °F /  13.3 °C 53.1 °F /  11.7 °C 29.65in /  1003.9hPa East 6.4mph /  10.3km/h 16mph /  25.7km/h 90% 0.00in /  0mm 0 W/m2
16:34 55.9 °F /  13.3 °C 53.1 °F /  11.7 °C 29.65in /  1003.9hPa ESE 5.7mph /  9.2km/h 13mph /  20.9km/h 90% 0.00in /  0mm 0 W/m2
16:39 55.9 °F /  13.3 °C 53.1 °F /  11.7 °C 29.65in /  1003.9hPa East 8mph /  12.9km/h 17mph /  27.4km/h 90% 0.00in /  0mm 0 W/m2
16:44 55.8 °F /  13.2 °C 53 °F /  11.7 °C 29.64in /  1003.6hPa ESE 4.6mph /  7.4km/h 14mph /  22.5km/h 90% 0.00in /  0mm 0 W/m2
16:49 56.1 °F /  13.4 °C 53.6 °F /  12 °C 29.63in /  1003.3hPa ESE 6.9mph /  11.1km/h 14mph /  22.5km/h 91% 0.00in /  0mm 0 W/m2
16:54 55.9 °F /  13.3 °C 53.4 °F /  11.9 °C 29.63in /  1003.3hPa East 4mph /  6.4km/h 14mph /  22.5km/h 91% 0.00in /  0mm 0 W/m2
16:59 55.9 °F /  13.3 °C 53.4 °F /  11.9 °C 29.63in /  1003.3hPa ESE 6.5mph /  10.5km/h 10mph /  16.1km/h 91% 0.00in /  0mm 0 W/m2
17:04 55.9 °F /  13.3 °C 53.4 °F /  11.9 °C 29.63in /  1003.3hPa East 6.2mph /  10km/h 11mph /  17.7km/h 91% 0.00in /  0mm 0 W/m2
17:09 55.9 °F /  13.3 °C 53.4 °F /  11.9 °C 29.63in /  1003.3hPa East 5.8mph /  9.3km/h 14mph /  22.5km/h 91% 0.00in /  0mm 0 W/m2
17:14 55.9 °F /  13.3 °C 53.4 °F /  11.9 °C 29.62in /  1002.9hPa East 3.7mph /  6km/h 13mph /  20.9km/h 91% 0.00in /  0mm 0 W/m2
17:19 55.9 °F /  13.3 °C 53.4 °F /  11.9 °C 29.62in /  1002.9hPa East 7mph /  11.3km/h 11mph /  17.7km/h 91% 0.00in /  0mm 0 W/m2
17:24 55.8 °F /  13.2 °C 53.2 °F /  11.8 °C 29.62in /  1002.9hPa East 6.6mph /  10.6km/h 15mph /  24.1km/h 91% 0.00in /  0mm 0 W/m2
17:29 55.8 °F /  13.2 °C 53.2 °F /  11.8 °C 29.62in /  1002.9hPa ESE 3.1mph /  5km/h 15mph /  24.1km/h 91% 0.00in /  0mm 0 W/m2
17:34 55.7 °F /  13.2 °C 53.3 °F /  11.8 °C 29.61in /  1002.6hPa East 6mph /  9.7km/h 11mph /  17.7km/h 92% 0.00in /  0mm 0 W/m2
17:39 55.6 °F /  13.1 °C 53.2 °F /  11.8 °C 29.60in /  1002.3hPa East 4.5mph /  7.2km/h 14mph /  22.5km/h 92% 0.00in /  0mm 0 W/m2
17:44 55.6 °F /  13.1 °C 53.2 °F /  11.8 °C 29.60in /  1002.3hPa East 6.5mph /  10.5km/h 14mph /  22.5km/h 92% 0.00in /  0mm 0 W/m2
17:49 55.6 °F /  13.1 °C 53.2 °F /  11.8 °C 29.60in /  1002.3hPa East 6.4mph /  10.3km/h 14mph /  22.5km/h 92% 0.00in /  0mm 0 W/m2
17:54 55.6 °F /  13.1 °C 53.2 °F /  11.8 °C 29.59in /  1001.9hPa East 4.9mph /  7.9km/h 10mph /  16.1km/h 92% 0.00in /  0mm 0 W/m2
17:59 55.7 °F /  13.2 °C 53.3 °F /  11.8 °C 29.59in /  1001.9hPa ESE 5.9mph /  9.5km/h 11mph /  17.7km/h 92% 0.00in /  0mm 0 W/m2
18:04 55.8 °F /  13.2 °C 53.4 °F /  11.9 °C 29.59in /  1001.9hPa East 4.4mph /  7.1km/h 11mph /  17.7km/h 92% 0.00in /  0mm 0 W/m2
18:09 55.8 °F /  13.2 °C 53.4 °F /  11.9 °C 29.59in /  1001.9hPa East 7.4mph /  11.9km/h 14mph /  22.5km/h 92.2% 0.00in /  0mm 0 W/m2
18:14 55.8 °F /  13.2 °C 53.8 °F /  12.1 °C 29.58in /  1001.6hPa ESE 6.2mph /  10km/h 12mph /  19.3km/h 93% 0.00in /  0mm 0 W/m2
18:19 55.8 °F /  13.2 °C 53.8 °F /  12.1 °C 29.58in /  1001.6hPa ESE 3.3mph /  5.3km/h 13mph /  20.9km/h 93% 0.00in /  0mm 0 W/m2
18:24 55.8 °F /  13.2 °C 53.8 °F /  12.1 °C 29.58in /  1001.6hPa ESE 4.1mph /  6.6km/h 11mph /  17.7km/h 93% 0.00in /  0mm 0 W/m2
18:29 55.9 °F /  13.3 °C 54 °F /  12.2 °C 29.58in /  1001.6hPa SE 3.5mph /  5.6km/h 11mph /  17.7km/h 93% 0.00in /  0mm 0 W/m2
18:34 56 °F /  13.3 °C 54.1 °F /  12.3 °C 29.57in /  1001.2hPa ESE 5.6mph /  9km/h 12mph /  19.3km/h 93% 0.00in /  0mm 0 W/m2
18:39 56.1 °F /  13.4 °C 54.1 °F /  12.3 °C 29.57in /  1001.2hPa ESE 4.8mph /  7.7km/h 12mph /  19.3km/h 93% 0.00in /  0mm 0 W/m2
18:44 56.1 °F /  13.4 °C 54.1 °F /  12.3 °C 29.56in /  1000.9hPa East 3.7mph /  6km/h 13mph /  20.9km/h 93% 0.20in /  5.08mm 0 W/m2
18:49 56.1 °F /  13.4 °C 54.1 °F /  12.3 °C 29.56in /  1000.9hPa East 4.1mph /  6.6km/h 10mph /  16.1km/h 93% 0.20in /  5.08mm 0 W/m2
18:54 56.1 °F /  13.4 °C 54.2 °F /  12.3 °C 29.56in /  1000.9hPa East 3.2mph /  5.1km/h 9mph /  14.5km/h 93.4% 0.20in /  5.08mm 0 W/m2
18:59 55.9 °F /  13.3 °C 54.3 °F /  12.4 °C 29.56in /  1000.9hPa East 3.3mph /  5.3km/h 8mph /  12.9km/h 94% 0.20in /  5.08mm 0 W/m2
19:04 55.9 °F /  13.3 °C 54.3 °F /  12.4 °C 29.56in /  1000.9hPa ESE 1.7mph /  2.7km/h 5mph /  8km/h 94% 0.20in /  5.08mm 0 W/m2
19:09 55.9 °F /  13.3 °C 54.3 °F /  12.4 °C 29.55in /  1000.6hPa East 2mph /  3.2km/h 6mph /  9.7km/h 94% 0.20in /  5.08mm 0 W/m2
19:14 56 °F /  13.3 °C 54.4 °F /  12.4 °C 29.55in /  1000.6hPa East 3.7mph /  6km/h 6mph /  9.7km/h 94% 0.20in /  5.08mm 0 W/m2
19:19 55.9 °F /  13.3 °C 54.3 °F /  12.4 °C 29.55in /  1000.6hPa East 2.7mph /  4.3km/h 6mph /  9.7km/h 94% 0.20in /  5.08mm 0 W/m2
19:24 56.1 °F /  13.4 °C 54.5 °F /  12.5 °C 29.54in /  1000.2hPa East 3.7mph /  6km/h 9mph /  14.5km/h 94% 0.20in /  5.08mm 0 W/m2
19:29 56.1 °F /  13.4 °C 54.5 °F /  12.5 °C 29.54in /  1000.2hPa ESE 4mph /  6.4km/h 9mph /  14.5km/h 94% 0.20in /  5.08mm 0 W/m2
19:34 56.1 °F /  13.4 °C 54.5 °F /  12.5 °C 29.54in /  1000.2hPa East 3.9mph /  6.3km/h 8mph /  12.9km/h 94% 0.20in /  5.08mm 0 W/m2
19:39 56.3 °F /  13.5 °C 54.7 °F /  12.6 °C 29.53in /  999.9hPa ESE 4.8mph /  7.7km/h 8mph /  12.9km/h 94% 0.20in /  5.08mm 0 W/m2
19:44 56.5 °F /  13.6 °C 54.9 °F /  12.7 °C 29.53in /  999.9hPa ESE 6.4mph /  10.3km/h 10mph /  16.1km/h 94% 0.20in /  5.08mm 0 W/m2
19:49 56.5 °F /  13.6 °C 54.9 °F /  12.7 °C 29.53in /  999.9hPa ESE 6.2mph /  10km/h 11mph /  17.7km/h 94% 0.00in /  0mm 0 W/m2
19:54 56.7 °F /  13.7 °C 55 °F /  12.8 °C 29.52in /  999.5hPa ESE 5.1mph /  8.2km/h 11mph /  17.7km/h 94% 0.01in /  0.25mm 0 W/m2
19:59 56.7 °F /  13.7 °C 55 °F /  12.8 °C 29.52in /  999.5hPa SE 4.2mph /  6.8km/h 10mph /  16.1km/h 94% 0.01in /  0.25mm 0 W/m2
20:04 56.8 °F /  13.8 °C 55.2 °F /  12.9 °C 29.52in /  999.5hPa East 4.4mph /  7.1km/h 8mph /  12.9km/h 94% 0.01in /  0.25mm 0 W/m2
20:09 56.8 °F /  13.8 °C 55.2 °F /  12.9 °C 29.51in /  999.2hPa ESE 4.3mph /  6.9km/h 8mph /  12.9km/h 94% 0.01in /  0.25mm 0 W/m2
20:14 56.8 °F /  13.8 °C 55.2 °F /  12.9 °C 29.51in /  999.2hPa ESE 4.7mph /  7.6km/h 9mph /  14.5km/h 94% 0.01in /  0.25mm 0 W/m2
20:19 56.8 °F /  13.8 °C 55.2 °F /  12.9 °C 29.50in /  998.9hPa SE 2.5mph /  4km/h 9mph /  14.5km/h 94% 0.01in /  0.25mm 0 W/m2
20:24 56.8 °F /  13.8 °C 55.2 °F /  12.9 °C 29.50in /  998.9hPa ESE 2.8mph /  4.5km/h 8mph /  12.9km/h 94% 0.01in /  0.25mm 0 W/m2
20:29 56.8 °F /  13.8 °C 55.2 °F /  12.9 °C 29.49in /  998.5hPa ESE 4.8mph /  7.7km/h 8mph /  12.9km/h 94% 0.01in /  0.25mm 0 W/m2
20:34 56.8 °F /  13.8 °C 55.2 °F /  12.9 °C 29.49in /  998.5hPa ESE 4.4mph /  7.1km/h 8mph /  12.9km/h 94% 0.01in /  0.25mm 0 W/m2
20:39 56.9 °F /  13.8 °C 55.2 °F /  12.9 °C 29.48in /  998.2hPa ESE 4.8mph /  7.7km/h 9mph /  14.5km/h 94% 0.01in /  0.25mm 0 W/m2
20:44 56.9 °F /  13.8 °C 55.2 °F /  12.9 °C 29.48in /  998.2hPa ESE 4mph /  6.4km/h 8mph /  12.9km/h 94% 0.01in /  0.25mm 0 W/m2
20:49 56.8 °F /  13.8 °C 55.2 °F /  12.9 °C 29.48in /  998.2hPa ESE 3.6mph /  5.8km/h 9mph /  14.5km/h 94% 0.01in /  0.25mm 0 W/m2
20:54 56.8 °F /  13.8 °C 55.2 °F /  12.9 °C 29.48in /  998.2hPa SE 3.9mph /  6.3km/h 10mph /  16.1km/h 94% 0.01in /  0.25mm 0 W/m2
20:59 56.9 °F /  13.8 °C 55.2 °F /  12.9 °C 29.47in /  997.9hPa SE 3.8mph /  6.1km/h 9mph /  14.5km/h 94% 0.01in /  0.25mm 0 W/m2
21:04 57 °F /  13.9 °C 55.2 °F /  12.9 °C 29.47in /  997.9hPa SE 3.7mph /  6km/h 11mph /  17.7km/h 94% 0.01in /  0.25mm 0 W/m2
21:09 57 °F /  13.9 °C 55.2 °F /  12.9 °C 29.47in /  997.9hPa SE 5.4mph /  8.7km/h 11mph /  17.7km/h 94% 0.01in /  0.25mm 0 W/m2
21:14 57 °F /  13.9 °C 55.2 °F /  12.9 °C 29.47in /  997.9hPa SSE 6mph /  9.7km/h 12mph /  19.3km/h 94% 0.01in /  0.25mm 0 W/m2
21:19 56.9 °F /  13.8 °C 55.2 °F /  12.9 °C 29.47in /  997.9hPa South 4.9mph /  7.9km/h 10mph /  16.1km/h 94% 0.01in /  0.25mm 0 W/m2
21:24 56.7 °F /  13.7 °C 55 °F /  12.8 °C 29.47in /  997.9hPa SSE 7.9mph /  12.7km/h 17mph /  27.4km/h 93.8% 0.01in /  0.25mm 0 W/m2
21:29 56.3 °F /  13.5 °C 54.3 °F /  12.4 °C 29.47in /  997.9hPa SSW 4.4mph /  7.1km/h 17mph /  27.4km/h 93% 0.01in /  0.25mm 0 W/m2
21:34 55.9 °F /  13.3 °C 54 °F /  12.2 °C 29.47in /  997.9hPa South 5.7mph /  9.2km/h 13mph /  20.9km/h 93% 0.02in /  0.51mm 0 W/m2
21:39 55.8 °F /  13.2 °C 53.8 °F /  12.1 °C 29.47in /  997.9hPa South 4.8mph /  7.7km/h 11mph /  17.7km/h 93% 0.02in /  0.51mm 0 W/m2
21:44 55.6 °F /  13.1 °C 53.6 °F /  12 °C 29.47in /  997.9hPa SSE 5.6mph /  9km/h 10mph /  16.1km/h 93% 0.02in /  0.51mm 0 W/m2
21:49 55.6 °F /  13.1 °C 53.6 °F /  12 °C 29.47in /  997.9hPa SSE 4.4mph /  7.1km/h 9mph /  14.5km/h 93% 0.03in /  0.76mm 0 W/m2
21:54 55.6 °F /  13.1 °C 53.6 °F /  12 °C 29.47in /  997.9hPa SSE 5mph /  8km/h 11mph /  17.7km/h 93% 0.03in /  0.76mm 0 W/m2
21:59 55.4 °F /  13 °C 53.2 °F /  11.8 °C 29.47in /  997.9hPa SSE 5.7mph /  9.2km/h 11mph /  17.7km/h 92.4% 0.03in /  0.76mm 0 W/m2
22:04 55.2 °F /  12.9 °C 52.9 °F /  11.6 °C 29.47in /  997.9hPa South 3.8mph /  6.1km/h 9mph /  14.5km/h 92% 0.03in /  0.76mm 0 W/m2
22:09 55.2 °F /  12.9 °C 52.9 °F /  11.6 °C 29.46in /  997.5hPa SSE 5.1mph /  8.2km/h 10mph /  16.1km/h 92% 0.04in /  1.02mm 0 W/m2
22:14 55 °F /  12.8 °C 52.7 °F /  11.5 °C 29.46in /  997.5hPa SSE 5.3mph /  8.5km/h 10mph /  16.1km/h 92% 0.04in /  1.02mm 0 W/m2
22:19 55 °F /  12.8 °C 52.7 °F /  11.5 °C 29.46in /  997.5hPa SE 4mph /  6.4km/h 9mph /  14.5km/h 92% 0.05in /  1.27mm 0 W/m2
22:24 55 °F /  12.8 °C 52.6 °F /  11.4 °C 29.45in /  997.2hPa SE 2.6mph /  4.2km/h 7mph /  11.3km/h 92% 0.05in /  1.27mm 0 W/m2
22:29 54.9 °F /  12.7 °C 52.5 °F /  11.4 °C 29.45in /  997.2hPa SE 6.8mph /  10.9km/h 21mph /  33.8km/h 92% 0.05in /  1.27mm 0 W/m2
22:34 54.7 °F /  12.6 °C 52.3 °F /  11.3 °C 29.45in /  997.2hPa South 5.9mph /  9.5km/h 25mph /  40.2km/h 92% 0.06in /  1.52mm 0 W/m2
22:39 54.4 °F /  12.4 °C 52.1 °F /  11.2 °C 29.45in /  997.2hPa SSW 5.2mph /  8.4km/h 11mph /  17.7km/h 92% 0.05in /  1.27mm 0 W/m2
22:44 54.3 °F /  12.4 °C 51.9 °F /  11.1 °C 29.44in /  996.8hPa South 8.4mph /  13.5km/h 21mph /  33.8km/h 91.6% 0.04in /  1.02mm 0 W/m2
22:49 54.3 °F /  12.4 °C 51.8 °F /  11 °C 29.44in /  996.8hPa South 6.8mph /  10.9km/h 18mph /  29km/h 91% 0.04in /  1.02mm 0 W/m2
22:54 54.1 °F /  12.3 °C 51.4 °F /  10.8 °C 29.44in /  996.8hPa SSE 5mph /  8km/h 10mph /  16.1km/h 90.4% 0.03in /  0.76mm 0 W/m2
22:59 53.9 °F /  12.2 °C 51 °F /  10.6 °C 29.44in /  996.8hPa SSE 7.8mph /  12.6km/h 18mph /  29km/h 90% 0.03in /  0.76mm 0 W/m2
23:04 53.7 °F /  12.1 °C 50.8 °F /  10.4 °C 29.43in /  996.5hPa South 5.6mph /  9km/h 14mph /  22.5km/h 90% 0.03in /  0.76mm 0 W/m2
23:09 53.4 °F /  11.9 °C 50.5 °F /  10.3 °C 29.43in /  996.5hPa SSE 4.8mph /  7.7km/h 11mph /  17.7km/h 90% 0.02in /  0.51mm 0 W/m2
23:14 53.2 °F /  11.8 °C 50 °F /  10 °C 29.43in /  996.5hPa South 7.6mph /  12.2km/h 13mph /  20.9km/h 89% 0.02in /  0.51mm 0 W/m2
23:19 53.1 °F /  11.7 °C 49.8 °F /  9.9 °C 29.42in /  996.2hPa South 3.2mph /  5.1km/h 10mph /  16.1km/h 89% 0.02in /  0.51mm 0 W/m2
23:24 53 °F /  11.7 °C 49.7 °F /  9.8 °C 29.41in /  995.8hPa SSE 2.6mph /  4.2km/h 11mph /  17.7km/h 89% 0.02in /  0.51mm 0 W/m2
23:29 53.1 °F /  11.7 °C 49.8 °F /  9.9 °C 29.41in /  995.8hPa SE 2.1mph /  3.4km/h 4mph /  6.4km/h 89% 0.02in /  0.51mm 0 W/m2
23:34 52.9 °F /  11.6 °C 49.8 °F /  9.9 °C 29.41in /  995.8hPa SSE 1.2mph /  1.9km/h 4mph /  6.4km/h 89.4% 0.01in /  0.25mm 0 W/m2
23:39 52.9 °F /  11.6 °C 50 °F /  10 °C 29.41in /  995.8hPa SSE 1.3mph /  2.1km/h 4mph /  6.4km/h 90% 0.01in /  0.25mm 0 W/m2
23:44 52.9 °F /  11.6 °C 50 °F /  10 °C 29.41in /  995.8hPa SSE 1.7mph /  2.7km/h 3mph /  4.8km/h 90% 0.01in /  0.25mm 0 W/m2
23:49 52.6 °F /  11.4 °C 49.7 °F /  9.8 °C 29.41in /  995.8hPa SSE 0.4mph /  0.6km/h 3mph /  4.8km/h 90% 0.01in /  0.25mm 0 W/m2
23:54 52.5 °F /  11.4 °C 49.6 °F /  9.8 °C 29.41in /  995.8hPa SSE 0.4mph /  0.6km/h 2mph /  3.2km/h 90% 0.01in /  0.25mm 0 W/m2
23:59 52.4 °F /  11.3 °C 49.6 °F /  9.8 °C 29.41in /  995.8hPa ESE 2.4mph /  3.9km/h 5mph /  8km/h 90% 0.01in /  0.25mm 0 W/m2
Bath Spa Weather
Compliments of Weather Underground - 2 mb